Time;durP1;ratioP1;P1;durP2;ratioP2;P2;SDS_P1;SDS_P2;PMS_P1;PMS_P2;Temp;Humidity;BMP_temperature;BMP_pressure;BME280_temperature;BME280_humidity;BME280_pressure;Samples;Min_cycle;Max_cycle;Signal;HPM_P1;HPM_P2
2022/01/28 00:02:53;;;;;;;;;;;5.70;99.90;;;;;;4998161;28;20438;-86
2022/01/28 00:05:22;;;;;;;;;;;5.80;99.90;;;;;;4975342;28;20401;-84
2022/01/28 00:07:51;;;;;;;;;;;5.70;99.90;;;;;;4980263;28;19922;-83
2022/01/28 00:10:20;;;;;;;;;;;5.70;99.90;;;;;;4985861;28;19930;-84
2022/01/28 00:13:37;;;;;;;;;;;5.70;99.90;;;;;;4987790;28;19929;-85
2022/01/28 00:15:47;;;;;;;;;;;5.70;99.90;;;;;;5012994;28;19925;-86
2022/01/28 00:39:47;;;;;;;;;;;5.50;99.90;;;;;;5078457;28;19932;-85
2022/01/28 00:42:17;;;;;;;;;;;5.60;99.90;;;;;;5060905;28;19952;-84
2022/01/28 00:44:45;;;;;;;;;;;5.60;99.90;;;;;;5077887;28;19936;-85
2022/01/28 00:47:13;;;;;;;;;;;5.60;99.90;;;;;;5078481;28;19924;-85
2022/01/28 00:49:41;;;;;;;;;;;5.90;99.90;;;;;;4967023;28;20509;-85
2022/01/28 00:52:10;;;;;;;;;;;5.50;99.90;;;;;;4976681;28;20282;-84
2022/01/28 00:54:39;;;;;;;;;;;5.50;99.90;;;;;;4967446;28;19922;-84
2022/01/28 00:57:06;;;;;;;;;;;5.50;99.90;;;;;;4985087;28;19932;-85
2022/01/28 00:59:34;;;;;;;;;;;5.50;99.90;;;;;;5018933;28;19926;-87
2022/01/28 01:02:01;;;;;;;;;;;5.40;99.90;;;;;;5005944;28;19929;-84
2022/01/28 01:04:30;;;;;;;;;;;5.40;99.90;;;;;;5080616;28;19928;-84
2022/01/28 01:07:04;;;;;;;;;;;5.40;99.90;;;;;;5081945;28;19924;-84
2022/01/28 01:09:32;;;;;;;;;;;5.40;99.90;;;;;;5053446;28;19925;-83
2022/01/28 01:12:00;;;;;;;;;;;5.40;99.90;;;;;;5082875;28;19929;-86
2022/01/28 01:14:29;;;;;;;;;;;5.40;99.90;;;;;;5083098;28;19928;-83
2022/01/28 01:20:14;;;;;;;;;;;5.40;99.90;;;;;;5021176;28;19934;-86
2022/01/28 01:22:49;;;;;;;;;;;5.30;99.90;;;;;;4993781;28;19931;-87
2022/01/28 01:25:24;;;;;;;;;;;5.30;99.90;;;;;;4963040;29;19927;-84
2022/01/28 01:27:55;;;;;;;;;;;5.10;99.90;;;;;;5001737;28;19926;-85
2022/01/28 01:30:24;;;;;;;;;;;5.30;99.90;;;;;;5019531;28;20098;-86
2022/01/28 01:32:53;;;;;;;;;;;5.30;99.90;;;;;;5086333;28;19929;-83
2022/01/28 01:35:24;;;;;;;;;;;5.30;99.90;;;;;;5070095;28;19924;-87
2022/01/28 01:37:51;;;;;;;;;;;5.30;99.90;;;;;;5117896;28;19935;-87
2022/01/28 01:40:28;;;;;;;;;;;5.30;99.90;;;;;;5101826;28;19931;-85
2022/01/28 01:43:15;;;;;;;;;;;5.30;99.90;;;;;;5085195;28;20145;-86
2022/01/28 01:46:08;;;;;;;;;;;5.30;99.90;;;;;;5067701;28;19924;-88
2022/01/28 01:54:12;;;;;;;;;;;5.20;99.90;;;;;;5087397;28;19924;-83
2022/01/28 01:56:40;;;;;;;;;;;5.20;99.90;;;;;;5048795;28;20345;-84
2022/01/28 01:59:08;;;;;;;;;;;5.20;99.90;;;;;;4988746;28;19930;-84
2022/01/28 02:01:36;;;;;;;;;;;5.20;99.90;;;;;;4987171;28;19926;-85
2022/01/28 02:04:04;;;;;;;;;;;5.10;99.90;;;;;;5069791;28;19935;-85
2022/01/28 02:06:32;;;;;;;;;;;5.10;99.90;;;;;;5087371;28;19931;-85
2022/01/28 02:09:00;;;;;;;;;;;5.10;99.90;;;;;;5092650;28;19918;-87
2022/01/28 02:11:27;;;;;;;;;;;5.10;99.90;;;;;;5111018;28;19924;-85
2022/01/28 02:13:59;;;;;;;;;;;5.00;99.90;;;;;;5094301;28;19934;-84
2022/01/28 02:16:26;;;;;;;;;;;5.00;99.90;;;;;;5093698;28;20402;-84
2022/01/28 02:18:56;;;;;;;;;;;5.00;99.90;;;;;;5112593;28;19934;-84
2022/01/28 02:21:23;;;;;;;;;;;5.00;99.90;;;;;;5093296;28;19924;-85
2022/01/28 02:23:57;;;;;;;;;;;5.00;99.90;;;;;;5123237;28;20499;-85
2022/01/28 02:26:25;;;;;;;;;;;5.00;99.90;;;;;;5067849;28;20387;-84
2022/01/28 02:28:57;;;;;;;;;;;4.90;99.90;;;;;;5027442;28;20289;-85
2022/01/28 02:31:27;;;;;;;;;;;4.90;99.90;;;;;;5013002;28;19936;-84
2022/01/28 02:33:57;;;;;;;;;;;4.00;99.90;;;;;;4999836;28;20352;-83
2022/01/28 02:36:26;;;;;;;;;;;4.80;99.90;;;;;;5017406;28;19929;-84
2022/01/28 02:38:53;;;;;;;;;;;4.80;99.90;;;;;;5017442;28;19930;-83
2022/01/28 02:41:24;;;;;;;;;;;4.80;99.90;;;;;;5031765;28;19929;-84
2022/01/28 02:46:26;;;;;;;;;;;4.70;99.90;;;;;;4999664;28;19925;-85
2022/01/28 02:49:05;;;;;;;;;;;4.70;99.90;;;;;;5001247;28;19925;-84
2022/01/28 02:51:32;;;;;;;;;;;4.60;99.90;;;;;;5000719;28;19930;-86
2022/01/28 02:54:11;;;;;;;;;;;4.60;99.90;;;;;;5017412;28;19941;-85
2022/01/28 02:56:46;;;;;;;;;;;4.60;99.90;;;;;;4999904;28;19940;-84
2022/01/28 02:59:14;;;;;;;;;;;4.50;99.90;;;;;;5053102;28;19928;-86
2022/01/28 03:01:42;;;;;;;;;;;4.50;99.90;;;;;;4998947;28;19933;-85
2022/01/28 03:04:29;;;;;;;;;;;4.50;99.90;;;;;;4993604;28;19941;-86
2022/01/28 03:06:56;;;;;;;;;;;4.50;99.90;;;;;;4994882;28;19937;-84
2022/01/28 03:09:24;;;;;;;;;;;4.50;99.90;;;;;;4976060;28;20067;-84
2022/01/28 03:12:12;;;;;;;;;;;4.50;99.90;;;;;;4993327;28;19926;-83
2022/01/28 03:15:20;;;;;;;;;;;4.50;99.90;;;;;;5032972;28;19928;-86
2022/01/28 03:17:54;;;;;;;;;;;4.40;99.90;;;;;;5076446;28;19924;-83
2022/01/28 03:22:49;;;;;;;;;;;4.40;99.90;;;;;;4997799;28;19937;-85
2022/01/28 03:25:17;;;;;;;;;;;4.40;99.90;;;;;;4993465;28;19937;-83
2022/01/28 03:27:56;;;;;;;;;;;4.40;99.90;;;;;;5010284;28;19926;-83
2022/01/28 03:30:24;;;;;;;;;;;4.40;99.90;;;;;;5008872;28;20522;-84
2022/01/28 03:32:53;;;;;;;;;;;3.30;99.90;;;;;;4977335;28;19926;-83
2022/01/28 03:35:28;;;;;;;;;;;5.20;99.90;;;;;;4961675;28;19937;-88
2022/01/28 03:38:00;;;;;;;;;;;4.30;99.90;;;;;;4994264;28;19926;-85
2022/01/28 03:40:28;;;;;;;;;;;3.60;99.90;;;;;;4649503;28;10000560;-85
2022/01/28 03:42:56;;;;;;;;;;;4.30;99.90;;;;;;5078943;28;20292;-84
2022/01/28 03:45:23;;;;;;;;;;;4.30;99.90;;;;;;5062084;28;19947;-84
2022/01/28 03:47:52;;;;;;;;;;;4.30;99.90;;;;;;5078136;28;19931;-84
2022/01/28 03:50:20;;;;;;;;;;;4.30;99.90;;;;;;5079789;28;19935;-84
2022/01/28 03:52:47;;;;;;;;;;;4.30;99.90;;;;;;5097419;28;19931;-84
2022/01/28 03:55:16;;;;;;;;;;;4.30;99.90;;;;;;5097202;28;19935;-85
2022/01/28 03:57:43;;;;;;;;;;;4.30;99.90;;;;;;5003256;28;19932;-83
2022/01/28 04:00:11;;;;;;;;;;;4.30;99.90;;;;;;5016471;28;20292;-82
2022/01/28 04:02:42;;;;;;;;;;;5.20;99.90;;;;;;5040339;28;19924;-86
2022/01/28 04:13:49;;;;;;;;;;;4.30;99.90;;;;;;4977805;28;19933;-87
2022/01/28 04:18:48;;;;;;;;;;;4.30;99.90;;;;;;4977371;28;19925;-82
2022/01/28 04:21:17;;;;;;;;;;;4.30;99.90;;;;;;4961166;28;20384;-85
2022/01/28 04:23:44;;;;;;;;;;;4.40;99.90;;;;;;4978696;28;19937;-85
2022/01/28 04:26:17;;;;;;;;;;;4.20;99.90;;;;;;4980011;28;19926;-85
2022/01/28 04:28:45;;;;;;;;;;;3.80;99.90;;;;;;5062657;28;19931;-85
2022/01/28 04:31:13;;;;;;;;;;;4.30;99.90;;;;;;4985116;28;19933;-85
2022/01/28 04:33:41;;;;;;;;;;;4.20;99.90;;;;;;4995614;28;19934;-87
2022/01/28 04:36:11;;;;;;;;;;;4.20;99.90;;;;;;4996601;28;19925;-84
2022/01/28 04:38:56;;;;;;;;;;;4.20;99.90;;;;;;4995223;28;19926;-83
2022/01/28 04:41:34;;;;;;;;;;;4.10;99.90;;;;;;4977858;28;19926;-84
2022/01/28 04:44:10;;;;;;;;;;;4.10;99.90;;;;;;4994899;28;19929;-85
2022/01/28 04:46:47;;;;;;;;;;;4.00;99.90;;;;;;4963783;28;20320;-84
2022/01/28 04:49:27;;;;;;;;;;;4.00;99.90;;;;;;4995199;28;19930;-86
2022/01/28 04:52:15;;;;;;;;;;;4.00;99.90;;;;;;4978035;28;19933;-84
2022/01/28 05:00:05;;;;;;;;;;;4.00;99.90;;;;;;4983454;28;20471;-85
2022/01/28 05:03:03;;;;;;;;;;;4.00;99.90;;;;;;4977162;28;19925;-84
2022/01/28 05:06:25;;;;;;;;;;;3.90;99.90;;;;;;4997001;28;19926;-85
2022/01/28 05:29:23;;;;;;;;;;;4.00;99.90;;;;;;4980253;28;20296;-86
2022/01/28 05:31:52;;;;;;;;;;;4.00;99.90;;;;;;5007530;28;19929;-83
2022/01/28 05:34:27;;;;;;;;;;;4.00;99.90;;;;;;5100778;28;19924;-83
2022/01/28 05:36:55;;;;;;;;;;;4.00;99.90;;;;;;5100360;28;19966;-84
2022/01/28 05:39:23;;;;;;;;;;;4.00;99.90;;;;;;5082072;28;19924;-84
2022/01/28 05:41:50;;;;;;;;;;;4.00;99.90;;;;;;5081411;28;19943;-84
2022/01/28 05:44:18;;;;;;;;;;;4.00;99.90;;;;;;5064104;28;19924;-83
2022/01/28 05:46:46;;;;;;;;;;;4.00;99.90;;;;;;5081531;28;19928;-85
2022/01/28 05:49:14;;;;;;;;;;;4.00;99.90;;;;;;5097566;28;19931;-85
2022/01/28 05:51:43;;;;;;;;;;;4.00;99.90;;;;;;5058785;28;19931;-86
2022/01/28 05:54:11;;;;;;;;;;;4.00;99.90;;;;;;5009787;28;20085;-84
2022/01/28 05:56:38;;;;;;;;;;;4.00;99.90;;;;;;5016940;28;19940;-83
2022/01/28 05:59:06;;;;;;;;;;;4.00;99.90;;;;;;5049631;28;19924;-83
2022/01/28 06:01:34;;;;;;;;;;;3.90;99.90;;;;;;5006619;28;19926;-83
2022/01/28 06:04:02;;;;;;;;;;;3.90;99.90;;;;;;5081019;28;19931;-84
2022/01/28 06:06:32;;;;;;;;;;;3.90;99.90;;;;;;4981546;28;20373;-83
2022/01/28 06:09:00;;;;;;;;;;;3.80;99.90;;;;;;4997357;28;19926;-85
2022/01/28 06:11:28;;;;;;;;;;;3.80;99.90;;;;;;4980046;28;19937;-86
2022/01/28 06:13:56;;;;;;;;;;;3.80;99.90;;;;;;4998110;28;19930;-85
2022/01/28 06:16:23;;;;;;;;;;;3.80;99.90;;;;;;4996625;28;20441;-84
2022/01/28 06:18:51;;;;;;;;;;;3.80;99.90;;;;;;4981946;28;20269;-84
2022/01/28 06:21:19;;;;;;;;;;;3.80;99.90;;;;;;4965414;28;20494;-84
2022/01/28 06:23:46;;;;;;;;;;;3.70;99.90;;;;;;4999450;28;19926;-85
2022/01/28 06:26:14;;;;;;;;;;;3.80;99.90;;;;;;5030682;28;19924;-84
2022/01/28 06:28:43;;;;;;;;;;;3.80;99.90;;;;;;5102969;28;19924;-83
2022/01/28 06:31:11;;;;;;;;;;;3.80;99.90;;;;;;5084866;28;19928;-85
2022/01/28 06:33:39;;;;;;;;;;;3.60;99.90;;;;;;5021484;28;19933;-84
2022/01/28 06:36:07;;;;;;;;;;;3.80;99.90;;;;;;4978493;28;19933;-84
2022/01/28 06:38:35;;;;;;;;;;;3.80;99.90;;;;;;4982332;28;19933;-84
2022/01/28 06:41:04;;;;;;;;;;;3.60;99.90;;;;;;4980672;28;19957;-84
2022/01/28 06:43:39;;;;;;;;;;;3.70;99.90;;;;;;4982874;28;19952;-86
2022/01/28 06:46:07;;;;;;;;;;;3.60;99.90;;;;;;4964238;28;19934;-83
2022/01/28 06:48:35;;;;;;;;;;;3.70;99.90;;;;;;4979375;28;19930;-83
2022/01/28 06:51:02;;;;;;;;;;;3.70;99.90;;;;;;5040774;28;19935;-83
2022/01/28 06:53:30;;;;;;;;;;;3.70;99.90;;;;;;5118328;28;19935;-84
2022/01/28 06:55:57;;;;;;;;;;;3.80;99.90;;;;;;5061769;28;19926;-84
2022/01/28 06:58:25;;;;;;;;;;;3.70;99.90;;;;;;5061738;28;19931;-85
2022/01/28 07:00:52;;;;;;;;;;;3.70;99.90;;;;;;5018223;28;19925;-84
2022/01/28 07:03:20;;;;;;;;;;;3.70;99.90;;;;;;5040597;28;20059;-85
2022/01/28 07:05:49;;;;;;;;;;;3.70;99.90;;;;;;5001916;28;19926;-85
2022/01/28 07:08:16;;;;;;;;;;;3.80;99.90;;;;;;5054608;28;19940;-84
2022/01/28 07:10:44;;;;;;;;;;;3.70;99.90;;;;;;5017557;28;19937;-82
2022/01/28 07:13:12;;;;;;;;;;;3.70;99.90;;;;;;5024157;28;19952;-82
2022/01/28 07:15:52;;;;;;;;;;;3.70;99.90;;;;;;5018873;28;19944;-85
2022/01/28 07:18:23;;;;;;;;;;;3.40;99.90;;;;;;4997880;28;19933;-85
2022/01/28 07:20:51;;;;;;;;;;;3.70;99.90;;;;;;5005526;28;19925;-85
2022/01/28 07:23:20;;;;;;;;;;;3.70;99.90;;;;;;5065247;28;19926;-90
2022/01/28 07:25:48;;;;;;;;;;;3.80;99.90;;;;;;5068389;28;19926;-87
2022/01/28 07:28:15;;;;;;;;;;;3.70;99.90;;;;;;5014250;28;19933;-86
2022/01/28 07:30:43;;;;;;;;;;;3.70;99.90;;;;;;4968508;28;19926;-84
2022/01/28 07:33:11;;;;;;;;;;;3.60;99.90;;;;;;5019969;28;19930;-85
2022/01/28 07:35:40;;;;;;;;;;;3.60;99.90;;;;;;4980383;28;19949;-84
2022/01/28 07:38:10;;;;;;;;;;;2.90;99.90;;;;;;5035271;28;19933;-85
2022/01/28 07:40:37;;;;;;;;;;;3.60;99.90;;;;;;5016596;28;20309;-84
2022/01/28 07:43:06;;;;;;;;;;;3.60;99.90;;;;;;5034769;28;19926;-84
2022/01/28 07:45:37;;;;;;;;;;;3.60;99.90;;;;;;5086491;28;19955;-84
2022/01/28 07:48:07;;;;;;;;;;;3.70;99.90;;;;;;5006532;28;19926;-86
2022/01/28 07:50:36;;;;;;;;;;;3.70;99.90;;;;;;5029564;28;19927;-82
2022/01/28 07:53:04;;;;;;;;;;;3.70;99.90;;;;;;5028439;28;19925;-86
2022/01/28 07:55:37;;;;;;;;;;;3.70;99.90;;;;;;5012325;28;19925;-83
2022/01/28 07:58:10;;;;;;;;;;;3.70;99.90;;;;;;5010590;28;19925;-85
2022/01/28 08:00:39;;;;;;;;;;;3.80;99.90;;;;;;5028207;28;19934;-84
2022/01/28 08:03:06;;;;;;;;;;;3.70;99.90;;;;;;5007812;28;19925;-84
2022/01/28 08:05:37;;;;;;;;;;;3.80;99.90;;;;;;5031884;28;19932;-84
2022/01/28 08:08:07;;;;;;;;;;;3.80;99.90;;;;;;5018379;28;19926;-87
2022/01/28 08:10:51;;;;;;;;;;;3.90;99.90;;;;;;4967253;28;19930;-86
2022/01/28 08:13:18;;;;;;;;;;;3.90;99.90;;;;;;5004857;28;19963;-84
2022/01/28 08:15:46;;;;;;;;;;;4.00;99.90;;;;;;5038242;28;19936;-89
2022/01/28 08:18:14;;;;;;;;;;;4.00;99.90;;;;;;4990154;28;19936;-85
2022/01/28 08:20:44;;;;;;;;;;;4.10;99.90;;;;;;4997477;28;19952;-85
2022/01/28 08:23:12;;;;;;;;;;;4.10;99.90;;;;;;4998427;28;19929;-84
2022/01/28 08:25:40;;;;;;;;;;;4.20;99.90;;;;;;5055501;28;19928;-88
2022/01/28 08:28:09;;;;;;;;;;;4.30;99.90;;;;;;5047390;28;19926;-88
2022/01/28 08:30:40;;;;;;;;;;;4.50;99.90;;;;;;5014615;28;19922;-88
2022/01/28 08:33:07;;;;;;;;;;;4.40;99.90;;;;;;5074079;28;19928;-88
2022/01/28 08:35:39;;;;;;;;;;;4.50;99.90;;;;;;4658027;28;10000089;-88
2022/01/28 08:38:17;;;;;;;;;;;4.50;99.90;;;;;;4990064;28;19936;-88
2022/01/28 08:40:45;;;;;;;;;;;4.60;99.90;;;;;;5004298;28;19948;-92
2022/01/28 08:43:14;;;;;;;;;;;4.60;99.90;;;;;;5014230;28;19936;-90
2022/01/28 08:45:44;;;;;;;;;;;4.90;99.90;;;;;;5016769;28;19937;-92
2022/01/28 08:48:12;;;;;;;;;;;4.80;99.90;;;;;;5005773;28;19933;-94
2022/01/28 08:50:40;;;;;;;;;;;4.80;99.90;;;;;;4989087;28;19930;-90
2022/01/28 08:53:09;;;;;;;;;;;4.90;99.90;;;;;;4972465;28;19926;-87
2022/01/28 08:55:38;;;;;;;;;;;4.90;99.90;;;;;;5041507;28;19928;-89
2022/01/28 08:58:10;;;;;;;;;;;5.00;99.90;;;;;;5008110;28;19940;-93
2022/01/28 09:00:40;;;;;;;;;;;5.10;99.90;;;;;;4972941;28;19928;-92
2022/01/28 09:03:09;;;;;;;;;;;5.10;99.90;;;;;;5057555;28;19924;-91
2022/01/28 09:05:37;;;;;;;;;;;5.20;99.90;;;;;;5091235;28;19924;-92
2022/01/28 09:08:08;;;;;;;;;;;5.20;99.90;;;;;;5053504;28;19927;-88
2022/01/28 09:10:41;;;;;;;;;;;5.30;99.90;;;;;;5088057;28;20440;-90
2022/01/28 09:13:23;;;;;;;;;;;5.30;99.90;;;;;;5089318;28;19924;-90
2022/01/28 09:15:52;;;;;;;;;;;5.60;99.90;;;;;;5091451;28;19920;-91
2022/01/28 09:18:22;;;;;;;;;;;5.40;99.90;;;;;;5088948;28;20233;-92
2022/01/28 09:20:53;;;;;;;;;;;5.50;99.90;;;;;;5047318;28;20019;-90
2022/01/28 09:23:24;;;;;;;;;;;5.60;99.90;;;;;;5026471;28;20311;-89
2022/01/28 09:25:52;;;;;;;;;;;5.60;99.90;;;;;;5039862;28;19936;-92
2022/01/28 09:28:21;;;;;;;;;;;5.60;99.90;;;;;;5007920;28;20054;-94
2022/01/28 09:30:49;;;;;;;;;;;5.70;99.90;;;;;;5001007;28;19921;-89
2022/01/28 09:33:19;;;;;;;;;;;5.70;99.90;;;;;;4995858;28;19914;-91
2022/01/28 09:35:47;;;;;;;;;;;5.70;99.90;;;;;;5021235;28;19936;-93
2022/01/28 09:38:18;;;;;;;;;;;5.80;99.90;;;;;;5006137;28;19930;-91
2022/01/28 09:40:49;;;;;;;;;;;5.90;99.90;;;;;;5022605;28;19940;-93
2022/01/28 09:43:20;;;;;;;;;;;5.90;99.90;;;;;;5030802;28;19920;-91
2022/01/28 09:45:52;;;;;;;;;;;6.10;99.90;;;;;;5015917;28;19930;-92
2022/01/28 09:48:22;;;;;;;;;;;6.10;99.90;;;;;;5013146;28;19926;-91
2022/01/28 09:50:53;;;;;;;;;;;6.20;99.90;;;;;;5014414;28;19925;-92
2022/01/28 09:53:21;;;;;;;;;;;6.30;99.90;;;;;;5015055;28;20482;-90
2022/01/28 09:55:52;;;;;;;;;;;6.40;99.90;;;;;;5024834;28;19928;-94
2022/01/28 09:58:25;;;;;;;;;;;6.50;99.90;;;;;;5014583;28;19930;-94
2022/01/28 10:00:54;;;;;;;;;;;6.60;99.90;;;;;;5021771;28;19925;-94
2022/01/28 10:03:24;;;;;;;;;;;6.70;99.90;;;;;;5055477;28;19933;-90
2022/01/28 10:05:53;;;;;;;;;;;6.70;99.90;;;;;;5015053;28;19935;-95
2022/01/28 10:08:27;;;;;;;;;;;6.90;99.90;;;;;;5039285;28;19942;-95
2022/01/28 10:11:12;;;;;;;;;;;6.90;99.90;;;;;;5044664;28;19929;-95
2022/01/28 10:13:53;;;;;;;;;;;6.90;99.90;;;;;;5023858;28;20385;-93
2022/01/28 10:16:23;;;;;;;;;;;7.00;99.90;;;;;;5065339;28;19922;-94
2022/01/28 10:18:56;;;;;;;;;;;7.10;99.90;;;;;;5030482;28;19926;-96
2022/01/28 10:21:27;;;;;;;;;;;7.20;99.90;;;;;;5008230;28;19917;-92
2022/01/28 10:24:00;;;;;;;;;;;7.30;99.90;;;;;;5073537;28;19925;-93
2022/01/28 10:26:35;;;;;;;;;;;7.40;99.90;;;;;;5066617;28;19925;-92
2022/01/28 10:29:07;;;;;;;;;;;7.40;99.90;;;;;;5012196;28;19956;-90
2022/01/28 10:31:37;;;;;;;;;;;7.50;99.90;;;;;;5049718;28;19929;-90
2022/01/28 10:34:27;;;;;;;;;;;7.60;99.90;;;;;;5038988;28;20190;-90
2022/01/28 10:37:14;;;;;;;;;;;7.60;99.90;;;;;;5010024;28;19933;-89
2022/01/28 10:39:47;;;;;;;;;;;7.60;99.90;;;;;;5020939;28;19926;-88
2022/01/28 10:42:33;;;;;;;;;;;7.70;99.90;;;;;;5087484;28;19931;-94
2022/01/28 10:45:10;;;;;;;;;;;7.70;99.90;;;;;;5005737;28;19933;-88
2022/01/28 10:47:41;;;;;;;;;;;7.80;99.90;;;;;;5005230;28;20224;-93
2022/01/28 10:50:24;;;;;;;;;;;7.80;99.90;;;;;;5040138;28;19927;-85
2022/01/28 10:53:11;;;;;;;;;;;7.90;99.90;;;;;;5020968;28;20242;-87
2022/01/28 10:55:40;;;;;;;;;;;7.90;99.90;;;;;;5022801;28;19921;-90
2022/01/28 10:58:10;;;;;;;;;;;7.80;99.90;;;;;;5027896;28;20236;-90
2022/01/28 11:00:41;;;;;;;;;;;8.20;99.90;;;;;;5000164;28;19933;-87
2022/01/28 11:03:12;;;;;;;;;;;6.60;99.90;;;;;;4992756;28;19930;-89
2022/01/28 11:05:40;;;;;;;;;;;8.10;99.90;;;;;;5007180;28;19928;-95
2022/01/28 11:08:24;;;;;;;;;;;8.00;99.90;;;;;;5010741;28;19924;-90
2022/01/28 11:10:54;;;;;;;;;;;8.30;99.90;;;;;;5022220;28;19929;-90
2022/01/28 11:13:25;;;;;;;;;;;8.30;99.90;;;;;;5008919;28;19935;-93
2022/01/28 11:15:58;;;;;;;;;;;7.50;99.90;;;;;;5011344;28;19928;-90
2022/01/28 11:18:34;;;;;;;;;;;8.70;99.90;;;;;;5016753;28;20026;-89
2022/01/28 11:21:06;;;;;;;;;;;8.50;99.90;;;;;;5009551;28;19945;-88
2022/01/28 11:23:55;;;;;;;;;;;8.70;99.90;;;;;;4998363;28;19933;-88
2022/01/28 11:26:35;;;;;;;;;;;8.80;99.90;;;;;;5017740;28;19926;-87
2022/01/28 11:29:19;;;;;;;;;;;8.80;99.90;;;;;;5002650;28;19934;-87
2022/01/28 11:31:49;;;;;;;;;;;8.90;99.90;;;;;;5004996;28;19932;-87
2022/01/28 11:34:27;;;;;;;;;;;8.90;99.90;;;;;;5033764;28;19948;-88
2022/01/28 11:36:57;;;;;;;;;;;9.00;99.90;;;;;;5032105;28;19924;-89
2022/01/28 11:39:29;;;;;;;;;;;9.00;99.90;;;;;;5060386;28;19944;-91
2022/01/28 11:42:10;;;;;;;;;;;9.10;99.90;;;;;;5029481;28;19926;-91
2022/01/28 11:44:50;;;;;;;;;;;9.20;99.90;;;;;;5010143;28;19931;-88
2022/01/28 11:47:21;;;;;;;;;;;9.20;99.90;;;;;;5039941;28;19935;-88
2022/01/28 11:50:00;;;;;;;;;;;9.30;99.90;;;;;;5023723;28;19930;-88
2022/01/28 11:52:33;;;;;;;;;;;9.40;99.90;;;;;;5020241;28;20249;-92
2022/01/28 11:55:25;;;;;;;;;;;9.40;99.90;;;;;;5014022;28;19926;-91
2022/01/28 11:58:19;;;;;;;;;;;9.50;99.90;;;;;;5025511;28;19930;-90
2022/01/28 12:00:50;;;;;;;;;;;9.60;99.90;;;;;;5018820;28;19996;-88
2022/01/28 12:03:24;;;;;;;;;;;9.60;99.90;;;;;;4982965;28;19926;-88
2022/01/28 12:06:10;;;;;;;;;;;9.80;99.90;;;;;;5007208;28;19922;-91
2022/01/28 12:08:46;;;;;;;;;;;9.90;99.90;;;;;;4986791;28;19930;-85
2022/01/28 12:11:58;;;;;;;;;;;10.00;99.90;;;;;;4984767;28;19942;-88
2022/01/28 12:14:45;;;;;;;;;;;9.90;99.90;;;;;;5026485;28;19928;-90
2022/01/28 12:17:33;;;;;;;;;;;10.10;99.90;;;;;;5033045;28;19919;-88
2022/01/28 12:20:38;;;;;;;;;;;10.30;99.90;;;;;;4979484;28;19937;-87
2022/01/28 12:23:11;;;;;;;;;;;10.20;99.90;;;;;;5032444;28;19933;-89
2022/01/28 12:25:41;;;;;;;;;;;10.30;99.90;;;;;;4994337;28;19940;-87
2022/01/28 12:28:28;;;;;;;;;;;10.40;99.90;;;;;;4995484;28;19936;-86
2022/01/28 12:31:06;;;;;;;;;;;10.60;99.90;;;;;;5028516;28;19922;-88
2022/01/28 12:33:45;;;;;;;;;;;10.50;99.90;;;;;;5022169;28;20346;-87
2022/01/28 12:36:14;;;;;;;;;;;12.10;99.90;;;;;;5007430;28;19930;-86
2022/01/28 12:38:56;;;;;;;;;;;10.70;99.90;;;;;;5020288;28;19943;-88
2022/01/28 12:41:29;;;;;;;;;;;11.50;99.90;;;;;;4986619;28;19922;-90
2022/01/28 12:44:06;;;;;;;;;;;10.00;99.90;;;;;;4984112;28;19937;-89
2022/01/28 12:46:39;;;;;;;;;;;10.40;99.90;;;;;;5042544;28;19928;-88
2022/01/28 12:49:12;;;;;;;;;;;11.00;99.90;;;;;;5019776;28;19929;-93
2022/01/28 12:51:43;;;;;;;;;;;10.60;99.90;;;;;;4968092;28;19943;-89
2022/01/28 12:54:16;;;;;;;;;;;10.60;99.90;;;;;;4983009;28;19961;-92
2022/01/28 12:56:46;;;;;;;;;;;10.60;99.90;;;;;;5013762;28;19934;-90
2022/01/28 12:59:15;;;;;;;;;;;10.70;99.90;;;;;;4991009;28;19941;-90
2022/01/28 13:01:51;;;;;;;;;;;10.70;99.90;;;;;;5008034;28;19988;-87
2022/01/28 13:04:25;;;;;;;;;;;10.70;99.90;;;;;;5001766;28;20301;-90
2022/01/28 13:10:06;;;;;;;;;;;10.80;99.90;;;;;;4992444;28;19917;-91
2022/01/28 13:12:34;;;;;;;;;;;10.70;99.90;;;;;;5017078;28;19926;-89
2022/01/28 13:15:07;;;;;;;;;;;10.60;99.90;;;;;;4968253;28;19926;-89
2022/01/28 13:17:55;;;;;;;;;;;10.60;99.90;;;;;;4978793;28;20395;-87
2022/01/28 13:20:30;;;;;;;;;;;10.60;99.90;;;;;;5025841;28;19945;-87
2022/01/28 13:23:02;;;;;;;;;;;10.60;99.90;;;;;;5019624;28;19930;-89
2022/01/28 13:25:31;;;;;;;;;;;10.60;99.90;;;;;;5016886;28;19930;-86
2022/01/28 13:28:03;;;;;;;;;;;10.60;99.90;;;;;;4980830;28;19930;-86
2022/01/28 13:30:35;;;;;;;;;;;10.60;99.90;;;;;;4987938;28;19938;-89
2022/01/28 13:33:05;;;;;;;;;;;10.90;99.90;;;;;;5001065;28;20285;-90
2022/01/28 13:38:35;;;;;;;;;;;10.70;99.90;;;;;;5007689;28;19933;-88
2022/01/28 13:41:21;;;;;;;;;;;9.40;99.90;;;;;;5016430;28;20274;-87
2022/01/28 13:44:07;;;;;;;;;;;10.70;99.90;;;;;;4982036;28;19926;-86
2022/01/28 13:47:02;;;;;;;;;;;10.80;99.90;;;;;;5009938;28;19929;-86
2022/01/28 13:49:37;;;;;;;;;;;11.00;99.90;;;;;;4994617;28;19930;-86
2022/01/28 13:52:18;;;;;;;;;;;10.70;99.90;;;;;;5015882;28;19933;-87
2022/01/28 13:54:51;;;;;;;;;;;10.80;99.90;;;;;;5010095;28;20393;-88
2022/01/28 13:57:28;;;;;;;;;;;10.80;99.90;;;;;;5007961;28;19924;-85
2022/01/28 14:00:00;;;;;;;;;;;10.90;99.90;;;;;;4985083;28;19943;-86
2022/01/28 14:02:28;;;;;;;;;;;10.80;99.90;;;;;;5009268;28;19932;-87
2022/01/28 14:04:59;;;;;;;;;;;10.90;99.90;;;;;;5027634;28;19930;-86
2022/01/28 14:07:35;;;;;;;;;;;11.20;99.90;;;;;;5003428;28;19931;-89
2022/01/28 14:10:15;;;;;;;;;;;11.00;99.90;;;;;;5029409;28;20205;-87
2022/01/28 14:13:28;;;;;;;;;;;;;;;;;;;;;
2022/01/28 14:16:12;;;;;;;;;;;10.90;99.90;;;;;;5026322;28;19924;-85
2022/01/28 14:18:45;;;;;;;;;;;10.20;99.90;;;;;;5022066;28;19934;-87
2022/01/28 14:21:19;;;;;;;;;;;11.10;99.90;;;;;;4992247;28;20392;-89
2022/01/28 14:23:49;;;;;;;;;;;10.90;99.90;;;;;;4994900;28;19932;-87
2022/01/28 14:26:25;;;;;;;;;;;10.90;99.90;;;;;;5010693;28;19930;-86
2022/01/28 14:32:00;;;;;;;;;;;10.90;99.90;;;;;;5018306;28;20319;-88
2022/01/28 14:34:28;;;;;;;;;;;10.20;99.90;;;;;;4990026;28;20197;-87
2022/01/28 14:36:58;;;;;;;;;;;10.90;99.90;;;;;;4989047;28;19926;-86
2022/01/28 14:39:27;;;;;;;;;;;10.90;99.90;;;;;;5004731;28;19934;-87
2022/01/28 14:42:01;;;;;;;;;;;10.80;99.90;;;;;;5002865;28;19934;-86
2022/01/28 14:44:34;;;;;;;;;;;10.70;99.90;;;;;;4999499;28;19934;-87
2022/01/28 14:47:30;;;;;;;;;;;10.70;99.90;;;;;;4973799;28;19930;-86
2022/01/28 14:50:01;;;;;;;;;;;10.70;99.90;;;;;;4640335;28;10000266;-87
2022/01/28 14:52:31;;;;;;;;;;;11.20;99.90;;;;;;4980536;28;19941;-87
2022/01/28 14:54:59;;;;;;;;;;;10.90;99.90;;;;;;4997393;28;20648;-89
2022/01/28 14:57:27;;;;;;;;;;;11.00;99.90;;;;;;4974063;28;19930;-88
2022/01/28 14:59:56;;;;;;;;;;;11.00;99.90;;;;;;4996790;28;19937;-88
2022/01/28 15:02:30;;;;;;;;;;;10.90;99.90;;;;;;4993992;28;19938;-87
2022/01/28 15:05:05;;;;;;;;;;;10.90;99.90;;;;;;4993677;28;19940;-86
2022/01/28 15:07:34;;;;;;;;;;;10.80;99.90;;;;;;4974268;28;19941;-87
2022/01/28 15:10:03;;;;;;;;;;;10.70;99.90;;;;;;4985737;28;20400;-88
2022/01/28 15:12:33;;;;;;;;;;;10.70;99.90;;;;;;4972654;28;19931;-87
2022/01/28 15:15:01;;;;;;;;;;;10.70;99.90;;;;;;4988297;28;20784;-88
2022/01/28 15:17:31;;;;;;;;;;;10.70;99.90;;;;;;4990596;28;19957;-88
2022/01/28 15:20:00;;;;;;;;;;;10.60;99.90;;;;;;4996094;28;20301;-87
2022/01/28 15:22:29;;;;;;;;;;;10.60;99.90;;;;;;4976872;28;19934;-86
2022/01/28 15:24:57;;;;;;;;;;;9.00;99.90;;;;;;4969856;28;19942;-85
2022/01/28 15:27:29;;;;;;;;;;;10.50;99.90;;;;;;4966611;28;19930;-87
2022/01/28 15:36:00;;;;;;;;;;;10.40;99.90;;;;;;4991928;28;19941;-86
2022/01/28 15:38:34;;;;;;;;;;;10.40;99.90;;;;;;5006195;28;19936;-86
2022/01/28 15:41:12;;;;;;;;;;;10.40;99.90;;;;;;4966519;28;19937;-88
2022/01/28 15:43:40;;;;;;;;;;;10.30;99.90;;;;;;4994086;28;19929;-86
2022/01/28 15:46:14;;;;;;;;;;;10.30;99.90;;;;;;4982615;28;19944;-85
2022/01/28 15:48:42;;;;;;;;;;;10.20;99.90;;;;;;4976055;28;19934;-86
2022/01/28 15:51:10;;;;;;;;;;;10.20;99.90;;;;;;4955066;28;20414;-88
2022/01/28 15:53:40;;;;;;;;;;;10.10;99.90;;;;;;5007457;28;20403;-89
2022/01/28 15:56:10;;;;;;;;;;;10.20;99.90;;;;;;4973137;28;19930;-89
2022/01/28 15:58:39;;;;;;;;;;;9.00;99.90;;;;;;4980357;28;19932;-86
2022/01/28 16:01:12;;;;;;;;;;;10.10;99.90;;;;;;4986909;28;20344;-85
2022/01/28 16:03:45;;;;;;;;;;;10.10;99.90;;;;;;4949755;28;19914;-86
2022/01/28 16:06:16;;;;;;;;;;;9.00;99.90;;;;;;4984714;28;19945;-89
2022/01/28 16:08:44;;;;;;;;;;;9.90;99.90;;;;;;4982691;28;19934;-88
2022/01/28 16:11:18;;;;;;;;;;;10.10;99.90;;;;;;4985301;28;19929;-85
2022/01/28 16:13:56;;;;;;;;;;;9.80;99.90;;;;;;5009263;28;19937;-90
2022/01/28 16:19:14;;;;;;;;;;;9.80;99.90;;;;;;4978860;28;19926;-88
2022/01/28 16:21:43;;;;;;;;;;;9.70;99.90;;;;;;5022132;28;19939;-88
2022/01/28 16:24:15;;;;;;;;;;;9.70;99.90;;;;;;5010500;28;19929;-86
2022/01/28 16:26:44;;;;;;;;;;;9.70;99.90;;;;;;5008588;28;20644;-85
2022/01/28 16:29:15;;;;;;;;;;;9.60;99.90;;;;;;4986548;28;19937;-85
2022/01/28 16:31:44;;;;;;;;;;;9.50;99.90;;;;;;5021192;28;19926;-86